createdAt,value
2019-01-18T00:04:10.529Z,23.13
2019-01-18T00:09:04.056Z,35.17
2019-01-18T00:13:56.493Z,21.10
2019-01-18T00:18:48.822Z,22.27
2019-01-18T00:23:41.189Z,31.77
2019-01-18T00:28:33.694Z,29.10
2019-01-18T00:33:25.888Z,27.20
2019-01-18T00:38:18.320Z,34.70
2019-01-18T00:43:10.368Z,42.30
2019-01-18T00:48:02.693Z,28.10
2019-01-18T00:52:55.129Z,30.47
2019-01-18T00:57:48.794Z,21.13
2019-01-18T01:02:41.254Z,24.10
2019-01-18T01:07:33.683Z,23.93
2019-01-18T01:12:26.166Z,18.63
2019-01-18T01:17:18.584Z,20.87
2019-01-18T01:22:10.720Z,16.80
2019-01-18T01:27:03.833Z,21.27
2019-01-18T01:31:56.117Z,21.33
2019-01-18T01:36:48.288Z,20.60
2019-01-18T01:41:40.757Z,25.67
2019-01-18T01:46:33.257Z,25.40
2019-01-18T01:51:25.348Z,23.17
2019-01-18T01:56:17.596Z,21.67
2019-01-18T02:01:09.800Z,24.73
2019-01-18T02:06:02.132Z,20.57
2019-01-18T02:10:54.244Z,20.57
2019-01-18T02:15:46.769Z,21.13
2019-01-18T02:20:38.785Z,30.87
2019-01-18T02:25:30.946Z,29.53
2019-01-18T02:30:25.914Z,32.63
2019-01-18T02:35:18.528Z,26.17
2019-01-18T02:40:14.703Z,30.70
2019-01-18T02:45:18.146Z,25.87
2019-01-18T02:50:11.698Z,26.40
2019-01-18T02:55:05.726Z,19.87
2019-01-18T03:00:04.642Z,20.87
2019-01-18T03:04:52.055Z,17.23
2019-01-18T03:09:44.505Z,23.90
2019-01-18T03:14:36.913Z,20.07
2019-01-18T03:19:29.318Z,19.27
2019-01-18T03:24:21.401Z,16.50
2019-01-18T03:29:13.677Z,19.30
2019-01-18T03:34:05.856Z,13.87
2019-01-18T03:38:58.169Z,16.87
2019-01-18T03:43:50.277Z,20.97
2019-01-18T03:48:42.656Z,24.47
2019-01-18T03:53:34.929Z,24.23
2019-01-18T03:58:27.228Z,19.73
2019-01-18T04:03:19.434Z,18.47
2019-01-18T04:08:11.677Z,16.93
2019-01-18T04:13:03.721Z,23.70
2019-01-18T04:17:55.922Z,21.30
2019-01-18T04:22:48.349Z,29.50
2019-01-18T04:27:40.750Z,18.20
2019-01-18T04:32:33.065Z,18.80
2019-01-18T04:37:25.310Z,18.97
2019-01-18T04:42:17.236Z,19.90
2019-01-18T04:47:09.668Z,22.17
2019-01-18T04:52:02.257Z,20.43
2019-01-18T04:56:54.426Z,18.63
2019-01-18T05:01:46.814Z,26.17
2019-01-18T05:06:39.282Z,30.63
2019-01-18T05:11:31.736Z,23.70
2019-01-18T05:16:24.135Z,43.33
2019-01-18T05:21:16.267Z,26.60
2019-01-18T05:26:08.878Z,29.43
2019-01-18T05:31:00.958Z,53.23
2019-01-18T05:35:53.349Z,27.87
2019-01-18T05:40:45.691Z,26.47
2019-01-18T05:45:37.848Z,25.07
2019-01-18T05:50:30.295Z,23.10
2019-01-18T05:55:22.816Z,25.20
2019-01-18T06:00:19.773Z,45.10
2019-01-18T06:05:15.240Z,69.67
2019-01-18T06:10:08.541Z,53.47
2019-01-18T06:15:00.656Z,54.97
2019-01-18T06:19:52.637Z,79.73
2019-01-18T06:24:45.005Z,42.47
2019-01-18T06:29:37.121Z,27.50
2019-01-18T06:34:29.464Z,42.63
2019-01-18T06:39:21.635Z,45.07
2019-01-18T06:44:13.846Z,37.33
2019-01-18T06:49:06.636Z,29.47
2019-01-18T06:53:58.597Z,28.27
2019-01-18T06:58:50.800Z,26.57
2019-01-18T07:03:43.136Z,23.23
2019-01-18T07:08:35.205Z,43.67
2019-01-18T07:13:27.369Z,64.00
2019-01-18T07:18:19.268Z,41.27
2019-01-18T07:23:11.714Z,35.93
2019-01-18T07:28:04.184Z,27.30
2019-01-18T07:32:56.341Z,32.83
2019-01-18T07:37:48.524Z,30.23
2019-01-18T07:42:40.773Z,28.63
2019-01-18T07:47:33.129Z,24.33
2019-01-18T07:52:25.369Z,42.83
2019-01-18T07:57:17.681Z,42.67
2019-01-18T08:02:09.925Z,28.73
2019-01-18T08:07:02.473Z,29.07
2019-01-18T08:11:54.455Z,30.87
2019-01-18T08:16:46.668Z,34.83
2019-01-18T08:21:38.970Z,30.47
2019-01-18T08:26:31.149Z,28.90
2019-01-18T08:31:28.881Z,27.17
2019-01-18T08:36:16.989Z,30.77
2019-01-18T08:41:09.251Z,29.77
2019-01-18T08:46:01.285Z,26.97
2019-01-18T08:50:53.421Z,24.10
2019-01-18T08:55:45.834Z,22.07
2019-01-18T09:00:38.202Z,27.17
2019-01-18T09:05:30.525Z,19.03
2019-01-18T09:10:27.932Z,20.00
2019-01-18T09:15:20.373Z,17.43
2019-01-18T09:20:21.024Z,19.70
2019-01-18T09:25:13.424Z,19.00
2019-01-18T09:30:11.691Z,20.43
2019-01-18T09:35:05.730Z,18.87
2019-01-18T09:39:57.865Z,22.70
2019-01-18T09:44:50.050Z,20.80
2019-01-18T09:49:42.884Z,20.17
2019-01-18T09:54:34.860Z,27.90
2019-01-18T09:59:26.673Z,26.17
2019-01-18T10:04:18.884Z,23.13
2019-01-18T10:09:11.384Z,23.07
2019-01-18T10:14:03.801Z,23.50
2019-01-18T10:18:55.968Z,23.13
2019-01-18T10:23:48.205Z,27.83
2019-01-18T10:28:40.660Z,23.53
2019-01-18T10:33:33.050Z,19.03
2019-01-18T10:38:25.486Z,21.50
2019-01-18T10:43:18.584Z,20.10
2019-01-18T10:48:11.023Z,17.37
2019-01-18T10:53:03.250Z,15.60
2019-01-18T10:57:55.493Z,13.97
2019-01-18T11:02:47.689Z,17.10
2019-01-18T11:07:40.064Z,20.17
2019-01-18T11:12:32.583Z,17.97
2019-01-18T11:17:25.055Z,20.90
2019-01-18T11:22:17.417Z,16.17
2019-01-18T11:27:09.643Z,14.47
2019-01-18T11:32:01.843Z,13.63
2019-01-18T11:36:56.496Z,16.67
2019-01-18T11:41:47.733Z,16.00
2019-01-18T11:46:39.781Z,11.60
2019-01-18T11:51:32.236Z,12.47
2019-01-18T11:56:24.360Z,15.20
2019-01-18T12:01:16.508Z,14.80
2019-01-18T12:06:08.623Z,17.47
2019-01-18T12:11:00.688Z,14.20
2019-01-18T12:15:52.808Z,13.20
2019-01-18T12:20:44.990Z,12.67
2019-01-18T12:25:37.601Z,11.67
2019-01-18T12:30:33.662Z,12.20
2019-01-18T12:35:25.832Z,12.03
2019-01-18T12:40:17.899Z,9.87
2019-01-18T12:45:13.489Z,9.40
2019-01-18T12:50:08.629Z,8.27
2019-01-18T12:55:00.737Z,7.87
2019-01-18T12:59:52.851Z,10.87
2019-01-18T13:04:45.132Z,10.50
2019-01-18T13:09:37.356Z,11.83
2019-01-18T13:14:29.822Z,18.40
2019-01-18T13:19:21.975Z,12.77
2019-01-18T13:24:14.129Z,15.47
2019-01-18T13:29:06.104Z,12.00
2019-01-18T13:33:58.451Z,13.10
2019-01-18T13:38:50.618Z,13.13
2019-01-18T13:43:43.088Z,16.03
2019-01-18T13:48:35.520Z,11.60
2019-01-18T13:53:27.668Z,11.47
2019-01-18T13:58:19.932Z,13.63
2019-01-18T14:03:12.115Z,10.60
2019-01-18T14:08:04.400Z,16.50
2019-01-18T14:12:56.789Z,10.87
2019-01-18T14:17:49.062Z,9.83
2019-01-18T14:22:41.539Z,10.83
2019-01-18T14:27:34.023Z,12.17
2019-01-18T14:32:26.382Z,11.57
2019-01-18T14:37:18.828Z,9.93
2019-01-18T14:42:11.232Z,10.63
2019-01-18T14:47:03.712Z,12.47
2019-01-18T14:51:55.835Z,11.17
2019-01-18T14:56:47.913Z,11.57
2019-01-18T15:01:40.253Z,15.43
2019-01-18T15:06:32.393Z,12.97
2019-01-18T15:11:24.845Z,208.17
2019-01-18T15:16:17.036Z,64.17
2019-01-18T15:21:09.346Z,69.23
2019-01-18T15:26:01.685Z,75.87
2019-01-18T15:30:54.017Z,96.03
2019-01-18T15:35:46.540Z,84.83
2019-01-18T15:40:41.820Z,49.33
2019-01-18T15:45:33.958Z,23.40
2019-01-18T15:50:28.237Z,19.20
2019-01-18T15:55:20.430Z,21.10
2019-01-18T16:00:21.701Z,25.87
2019-01-18T16:05:14.141Z,26.07
2019-01-18T16:10:09.965Z,27.63
2019-01-18T16:15:02.338Z,22.17
2019-01-18T16:19:54.765Z,26.87
2019-01-18T16:24:47.149Z,25.53
2019-01-18T16:29:39.337Z,24.37
2019-01-18T16:34:31.639Z,26.40
2019-01-18T16:39:23.840Z,27.07
2019-01-18T16:44:15.990Z,20.47
2019-01-18T16:49:08.468Z,20.50
2019-01-18T16:54:00.688Z,41.03
2019-01-18T16:58:52.828Z,32.13
2019-01-18T17:03:45.396Z,30.80
2019-01-18T17:08:37.624Z,46.33
2019-01-18T17:13:30.149Z,34.57
2019-01-18T17:18:24.329Z,58.10
2019-01-18T17:23:16.909Z,55.97
2019-01-18T17:28:10.171Z,67.93
2019-01-18T17:33:02.540Z,52.93
2019-01-18T17:38:06.289Z,49.20
2019-01-18T17:43:13.053Z,92.03
2019-01-18T17:48:23.214Z,140.80
2019-01-18T17:53:18.496Z,113.90
2019-01-18T17:58:19.824Z,71.30
2019-01-18T18:03:24.263Z,47.43
2019-01-18T18:08:43.215Z,39.27
2019-01-18T18:13:44.977Z,48.03
2019-01-18T18:18:52.222Z,46.67
2019-01-18T18:24:03.626Z,41.77
2019-01-18T18:29:16.556Z,72.57
2019-01-18T18:34:32.888Z,36.33
2019-01-18T18:39:33.838Z,33.73
2019-01-18T18:44:49.932Z,33.47
2019-01-18T18:50:11.985Z,47.83
2019-01-18T18:55:16.349Z,33.47
2019-01-18T19:00:35.421Z,34.17
2019-01-18T19:05:39.309Z,66.30
2019-01-18T19:10:34.489Z,110.37
2019-01-18T19:15:32.384Z,133.37
2019-01-18T19:20:27.552Z,84.47
2019-01-18T19:25:31.530Z,44.07
2019-01-18T19:30:41.745Z,44.87
2019-01-18T19:35:49.193Z,53.10
2019-01-18T19:41:00.585Z,38.20
2019-01-18T19:46:05.064Z,45.50
2019-01-18T19:51:15.075Z,36.07
2019-01-18T19:56:16.917Z,67.00
2019-01-18T20:01:20.573Z,46.00
2019-01-18T20:06:33.794Z,42.37
2019-01-18T20:11:43.141Z,41.23
2019-01-18T20:16:41.503Z,41.67
2019-01-18T20:21:45.508Z,41.23
2019-01-18T20:26:55.397Z,39.60
2019-01-18T20:31:53.214Z,44.20
2019-01-18T20:36:57.418Z,38.33
2019-01-18T20:42:09.597Z,36.63
2019-01-18T20:47:04.703Z,44.37
2019-01-18T20:52:11.469Z,41.47
2019-01-18T20:57:21.468Z,36.80
2019-01-18T21:02:39.841Z,35.10
2019-01-18T21:07:46.138Z,34.07
2019-01-18T21:12:48.386Z,43.57
2019-01-18T21:18:01.479Z,46.20
2019-01-18T21:23:05.015Z,53.77
2019-01-18T21:28:08.944Z,43.73
2019-01-18T21:33:13.211Z,44.57
2019-01-18T21:38:17.525Z,63.70
2019-01-18T21:43:15.568Z,64.27
2019-01-18T21:48:36.389Z,41.73
2019-01-18T21:53:55.592Z,59.33
2019-01-18T21:59:05.672Z,75.53
2019-01-18T22:04:09.860Z,44.57
2019-01-18T22:09:11.077Z,63.10
2019-01-18T22:14:15.793Z,38.37
2019-01-18T22:19:30.464Z,127.47
2019-01-18T22:24:59.780Z,83.43
2019-01-18T22:30:23.137Z,92.67
2019-01-18T22:35:44.269Z,46.83
2019-01-18T22:40:57.570Z,47.37
2019-01-18T22:45:52.626Z,32.23
2019-01-18T22:51:12.905Z,52.83
2019-01-18T22:56:08.550Z,34.93
2019-01-18T23:01:21.302Z,57.23
2019-01-18T23:06:25.777Z,28.83
2019-01-18T23:11:32.923Z,28.83
2019-01-18T23:16:43.073Z,37.27
2019-01-18T23:21:44.301Z,33.93
2019-01-18T23:26:55.910Z,38.60
2019-01-18T23:31:50.993Z,46.40
2019-01-18T23:36:48.473Z,34.70
2019-01-18T23:42:12.083Z,31.33
2019-01-18T23:47:07.556Z,34.00
2019-01-18T23:52:08.145Z,45.13
2019-01-18T23:57:21.096Z,33.67
